Carnival Splendor — 3EUS — position and weather

sailwx.info

Track history (hours):
 
Tides and Currents Weather Stations Pressure Air Temp Water Temp Dewpoint Dewpoint Depression Visibility Wind Speed Wind Dir Waves Ship Positions

Carnival Splendor

Last reported at 2019-Aug-24 22:29 UTC. Time now 2019-Aug-24 22:46 UTC.
Position N 33°45' W 118°11'.

Length 289 m; draft 8.4 m.

Type: Ship. MMSI: 372808000.

Date/timePositionNaut miles runAvg speedWind from/ knotsBaromVisibWave heightAir tempDewpointWater temp
2019-Aug-24 22:29N 33°45' W 118°11'0 0.0
2019-Aug-24 21:59N 33°45' W 118°11'0 0.0
2019-Aug-24 21:29N 33°45' W 118°11'0 0.0
2019-Aug-24 20:59N 33°45' W 118°11'0 0.0
2019-Aug-24 20:29N 33°45' W 118°11'0 0.0
2019-Aug-24 19:58N 33°45' W 118°11'0 0.0
2019-Aug-24 19:28N 33°45' W 118°11'0 0.0
2019-Aug-24 18:58N 33°45' W 118°11'0 0.0
2019-Aug-24 18:28N 33°45' W 118°11'0 0.0
2019-Aug-24 17:58N 33°45' W 118°11'0 0.0
2019-Aug-24 17:30N 33°45' W 118°11'0 0.0
2019-Aug-24 17:00N 33°45' W 118°11'0 0.0
2019-Aug-24 16:30N 33°45' W 118°11'0 0.0
2019-Aug-24 16:00N 33°45' W 118°11'0 0.0
2019-Aug-24 15:29N 33°45' W 118°11'0 0.0
2019-Aug-24 14:59N 33°45' W 118°11'0 0.0
2019-Aug-24 14:29N 33°45' W 118°11'0 0.0
2019-Aug-24 14:00N 33°45' W 118°11'0 0.4
2019-Aug-24 13:31N 33°45' W 118°11'3 6.3
2019-Aug-24 13:00N 33°42' W 118°11'611.6
2019-Aug-24 12:30N 33°36' W 118°10'611.8
2019-Aug-24 12:00N 33°30' W 118°07'611.9
2019-Aug-24 11:30N 33°25' W 118°05'612.0
2019-Aug-24 11:00N 33°19' W 118°02'612.0
2019-Aug-24 10:30N 33°14' W 118°00'611.9
2019-Aug-24 10:00N 33°08' W 117°58'4242.4
2019-Aug-24 10:00N 33°06' W 117°54'4 7.7 010 / 51012.010.8 18.014.618.0
2019-Aug-24 09:30N 33°02' W 117°55'510.1
2019-Aug-24 09:00N 32°58' W 117°53'917.6
2019-Aug-24 08:31N 32°49' W 117°50'918.0
2019-Aug-24 08:00N 32°41' W 117°46'917.9
2019-Aug-24 07:31N 32°33' W 117°43'917.5
2019-Aug-24 07:01N 32°24' W 117°42'918.1
2019-Aug-24 06:30N 32°16' W 117°36'918.3
2019-Aug-24 06:00N 32°08' W 117°32'918.5
2019-Aug-24 05:30N 31°59' W 117°29'918.2
2019-Aug-24 05:00N 31°50' W 117°25'1417.8
2019-Aug-24 04:14N 31°37' W 117°20'1017.7
2019-Aug-24 03:39N 31°28' W 117°16'317.4
2019-Aug-24 03:30N 31°25' W 117°15'917.5
2019-Aug-24 03:00N 31°17' W 117°12'917.4
2019-Aug-24 02:30N 31°08' W 117°09'36019.5
2019-Aug-23 08:00N 25°54' W 113°48'25819.9 350 / 71010.0 5.4 22.018.920.0
2019-Aug-22 19:00N 23°00' W 110°18'   130 / 201010.010.8 28.022.128.0
2019-Aug-20 07:00N 23°00' W 108°00'8320.8 220 / 71007.010.8 30.019.428.0
2019-Aug-20 03:00N 22°54' W 109°30'78 5.6 230 / 71007.010.8 29.023.228.0
2019-Aug-19 13:00N 23°24' W 110°48'7518.8 330 / 111012.010.8 25.018.824.0
2019-Aug-19 09:00N 24°00' W 112°00'9719.5 340 / 81010.010.8 24.021.025.0
2019-Aug-19 04:00N 25°12' W 113°12'40121.3 310 / 161010.010.8 22.018.924.0
2019-Aug-18 09:13N 30°56' W 117°05'1521.8
2019-Aug-18 08:32N 31°10' W 117°10'121.6
2019-Aug-18 08:29N 31°11' W 117°11'1021.7
2019-Aug-18 08:00N 31°21' W 117°15'2221.5
2019-Aug-18 07:00N 31°41' W 117°24'12835.8
2019-Aug-18 07:00N 31°30' W 117°18'2443.8 280 / 61011.010.8 18.012.719.0
2019-Aug-18 06:27N 31°51' W 117°31'921.6
2019-Aug-18 06:00N 31°59' W 117°37'1121.8
2019-Aug-18 05:30N 32°09' W 117°43'1020.9
2019-Aug-18 05:00N 32°18' W 117°49'1020.4
2019-Aug-18 04:30N 32°28' W 117°47'1019.8
2019-Aug-18 04:00N 32°38' W 117°48'1020.8
2019-Aug-18 03:30N 32°48' W 117°53'1020.2
2019-Aug-18 03:01N 32°57' W 117°57'1020.3
2019-Aug-18 02:31N 33°07' W 118°01'1020.0
2019-Aug-18 02:01N 33°16' W 118°05'917.1
2019-Aug-18 01:30N 33°24' W 118°08'611.6
2019-Aug-18 01:00N 33°30' W 118°11'612.0
2019-Aug-18 00:30N 33°35' W 118°13'611.1
2019-Aug-18 00:00N 33°41' W 118°12'4 8.5
2019-Aug-17 23:30N 33°45' W 118°11'0 0.5
2019-Aug-17 23:01N 33°45' W 118°11'0 0.0
2019-Aug-17 22:30N 33°45' W 118°11'0 0.0
2019-Aug-17 22:01N 33°45' W 118°11'0 0.0
2019-Aug-17 21:30N 33°45' W 118°11'0 0.0
2019-Aug-17 21:00N 33°45' W 118°11'0 0.0
2019-Aug-17 20:31N 33°45' W 118°11'0 0.0
2019-Aug-17 20:00N 33°45' W 118°11'0 0.0
2019-Aug-17 19:30N 33°45' W 118°11'0 0.0
2019-Aug-17 19:00N 33°45' W 118°11'0 0.0
2019-Aug-17 18:31N 33°45' W 118°11'0 0.0
2019-Aug-17 17:31N 33°45' W 118°11'0 0.0
2019-Aug-17 17:01N 33°45' W 118°11'0 0.0
2019-Aug-17 16:30N 33°45' W 118°11'0 0.0
2019-Aug-17 16:01N 33°45' W 118°11'0 0.0
2019-Aug-17 15:30N 33°45' W 118°11'0 0.0
2019-Aug-17 15:00N 33°45' W 118°11'0 0.0
2019-Aug-17 14:31N 33°45' W 118°11'0 0.0
2019-Aug-17 14:01N 33°45' W 118°11'0 0.3
2019-Aug-17 13:30N 33°45' W 118°11'4 7.4
2019-Aug-17 13:00N 33°41' W 118°11'611.0
2019-Aug-17 12:30N 33°36' W 118°10'611.5
2019-Aug-17 12:00N 33°30' W 118°07'611.7
2019-Aug-17 11:30N 33°25' W 118°05'612.0
2019-Aug-17 11:00N 33°19' W 118°03'611.9
2019-Aug-17 10:30N 33°14' W 118°00'611.9
2019-Aug-17 10:00N 33°08' W 117°58'5323.9
2019-Aug-17 10:00N 33°12' W 117°54'1020.3 070 / 51012.010.8 18.012.718.0
2019-Aug-17 09:30N 33°02' W 117°55'510.6
2019-Aug-17 09:00N 32°57' W 117°53'816.5
2019-Aug-17 08:31N 32°49' W 117°50'918.2
2019-Aug-17 08:01N 32°41' W 117°47'918.1
2019-Aug-17 07:31N 32°32' W 117°44'917.7
2019-Aug-17 07:01N 32°24' W 117°41'917.6
2019-Aug-17 06:31N 32°16' W 117°36'918.1
2019-Aug-17 06:01N 32°07' W 117°32'917.9
2019-Aug-17 05:31N 31°59' W 117°29'1019.0
2019-Aug-17 05:01N 31°50' W 117°25'1020.1
2019-Aug-17 04:31N 31°40' W 117°21'1019.8
2019-Aug-17 04:01N 31°31' W 117°17'1019.9
2019-Aug-17 03:30N 31°22' W 117°13'1019.7
2019-Aug-17 03:01N 31°12' W 117°10'1019.7
2019-Aug-17 02:31N 31°03' W 117°07'1019.6
2019-Aug-17 02:00N 30°54' W 117°03'1019.7
2019-Aug-17 01:30N 30°44' W 116°59'1020.1
2019-Aug-17 01:00N 30°35' W 116°54'1020.4
2019-Aug-17 00:30N 30°26' W 116°50'1020.6
2019-Aug-17 00:00N 30°16' W 116°46'1020.7
2019-Aug-16 23:30N 30°06' W 116°42'1020.7
2019-Aug-16 23:00N 29°56' W 116°38'2920.5
2019-Aug-16 21:34N 29°29' W 116°27'1620.0
2019-Aug-16 20:48N 29°14' W 116°21'619.7
2019-Aug-16 20:29N 29°08' W 116°19'1319.6
2019-Aug-16 19:49N 28°56' W 116°14'719.7
2019-Aug-16 19:28N 28°50' W 116°11'919.8
2019-Aug-16 19:00N 28°41' W 116°08'2120.2
2019-Aug-16 19:00N 28°42' W 116°06'1122.0 300 / 141014.010.8 19.013.816.0
2019-Aug-16 18:30N 28°31' W 116°04'1020.0
2019-Aug-16 18:00N 28°22' W 116°00'1019.6
2019-Aug-16 17:31N 28°14' W 115°54'1020.1
2019-Aug-16 17:00N 28°06' W 115°47'16918.8
2019-Aug-16 08:00N 25°54' W 113°48'4522.5 300 / 151012.010.8 20.018.419.0
2019-Aug-16 06:00N 25°18' W 113°18'22320.2 270 / 101012.010.8 22.018.925.0
2019-Aug-15 19:00N 22°54' W 110°12'6321.0 290 / 151012.010.8 26.021.522.0
2019-Aug-15 16:00N 22°24' W 109°12'5819.4 250 / 151011.010.8 27.022.628.0
2019-Aug-15 13:00N 21°54' W 108°18'13519.2 250 / 121012.010.8 28.020.527.0
2019-Aug-15 06:00N 20°48' W 106°12'   290 / 101011.010.8 29.024.825.0
Track history (hours):
 
Tides and Currents Weather Stations Pressure Air Temp Water Temp Dewpoint Dewpoint Depression Visibility Wind Speed Wind Dir Waves Ship Positions

Carnival Splendor

Last reported at 2019-Aug-24 22:29 UTC. Time now 2019-Aug-24 22:46 UTC.
Position N 33°45' W 118°11'.

Length 289 m; draft 8.4 m.

Type: Ship. MMSI: 372808000.

Date/timePositionNaut miles runAvg speedWind from/ knotsBaromVisibWave heightAir tempDewpointWater temp
2019-Aug-24 22:29N 33°45' W 118°11'0 0.0
2019-Aug-24 21:59N 33°45' W 118°11'0 0.0
2019-Aug-24 21:29N 33°45' W 118°11'0 0.0
2019-Aug-24 20:59N 33°45' W 118°11'0 0.0
2019-Aug-24 20:29N 33°45' W 118°11'0 0.0
2019-Aug-24 19:58N 33°45' W 118°11'0 0.0
2019-Aug-24 19:28N 33°45' W 118°11'0 0.0
2019-Aug-24 18:58N 33°45' W 118°11'0 0.0
2019-Aug-24 18:28N 33°45' W 118°11'0 0.0
2019-Aug-24 17:58N 33°45' W 118°11'0 0.0
2019-Aug-24 17:30N 33°45' W 118°11'0 0.0
2019-Aug-24 17:00N 33°45' W 118°11'0 0.0
2019-Aug-24 16:30N 33°45' W 118°11'0 0.0
2019-Aug-24 16:00N 33°45' W 118°11'0 0.0
2019-Aug-24 15:29N 33°45' W 118°11'0 0.0
2019-Aug-24 14:59N 33°45' W 118°11'0 0.0
2019-Aug-24 14:29N 33°45' W 118°11'0 0.0
2019-Aug-24 14:00N 33°45' W 118°11'0 0.4
2019-Aug-24 13:31N 33°45' W 118°11'3 6.3
2019-Aug-24 13:00N 33°42' W 118°11'611.6
2019-Aug-24 12:30N 33°36' W 118°10'611.8
2019-Aug-24 12:00N 33°30' W 118°07'611.9
2019-Aug-24 11:30N 33°25' W 118°05'612.0
2019-Aug-24 11:00N 33°19' W 118°02'612.0
2019-Aug-24 10:30N 33°14' W 118°00'611.9
2019-Aug-24 10:00N 33°08' W 117°58'4242.4
2019-Aug-24 10:00N 33°06' W 117°54'4 7.7 010 / 51012.010.8 18.014.618.0
2019-Aug-24 09:30N 33°02' W 117°55'510.1
2019-Aug-24 09:00N 32°58' W 117°53'917.6
2019-Aug-24 08:31N 32°49' W 117°50'918.0
2019-Aug-24 08:00N 32°41' W 117°46'917.9
2019-Aug-24 07:31N 32°33' W 117°43'917.5
2019-Aug-24 07:01N 32°24' W 117°42'918.1
2019-Aug-24 06:30N 32°16' W 117°36'918.3
2019-Aug-24 06:00N 32°08' W 117°32'918.5
2019-Aug-24 05:30N 31°59' W 117°29'918.2
2019-Aug-24 05:00N 31°50' W 117°25'1417.8
2019-Aug-24 04:14N 31°37' W 117°20'1017.7
2019-Aug-24 03:39N 31°28' W 117°16'317.4
2019-Aug-24 03:30N 31°25' W 117°15'917.5
2019-Aug-24 03:00N 31°17' W 117°12'917.4
2019-Aug-24 02:30N 31°08' W 117°09'36019.5
2019-Aug-23 08:00N 25°54' W 113°48'25819.9 350 / 71010.0 5.4 22.018.920.0
2019-Aug-22 19:00N 23°00' W 110°18'   130 / 201010.010.8 28.022.128.0
2019-Aug-20 07:00N 23°00' W 108°00'8320.8 220 / 71007.010.8 30.019.428.0
2019-Aug-20 03:00N 22°54' W 109°30'78 5.6 230 / 71007.010.8 29.023.228.0
2019-Aug-19 13:00N 23°24' W 110°48'7518.8 330 / 111012.010.8 25.018.824.0
2019-Aug-19 09:00N 24°00' W 112°00'9719.5 340 / 81010.010.8 24.021.025.0
2019-Aug-19 04:00N 25°12' W 113°12'40121.3 310 / 161010.010.8 22.018.924.0
2019-Aug-18 09:13N 30°56' W 117°05'1521.8
2019-Aug-18 08:32N 31°10' W 117°10'121.6
2019-Aug-18 08:29N 31°11' W 117°11'1021.7
2019-Aug-18 08:00N 31°21' W 117°15'2221.5
2019-Aug-18 07:00N 31°41' W 117°24'12835.8
2019-Aug-18 07:00N 31°30' W 117°18'2443.8 280 / 61011.010.8 18.012.719.0
2019-Aug-18 06:27N 31°51' W 117°31'921.6
2019-Aug-18 06:00N 31°59' W 117°37'1121.8
2019-Aug-18 05:30N 32°09' W 117°43'1020.9
2019-Aug-18 05:00N 32°18' W 117°49'1020.4
2019-Aug-18 04:30N 32°28' W 117°47'1019.8
2019-Aug-18 04:00N 32°38' W 117°48'1020.8
2019-Aug-18 03:30N 32°48' W 117°53'1020.2
2019-Aug-18 03:01N 32°57' W 117°57'1020.3
2019-Aug-18 02:31N 33°07' W 118°01'1020.0
2019-Aug-18 02:01N 33°16' W 118°05'917.1
2019-Aug-18 01:30N 33°24' W 118°08'611.6
2019-Aug-18 01:00N 33°30' W 118°11'612.0
2019-Aug-18 00:30N 33°35' W 118°13'611.1
2019-Aug-18 00:00N 33°41' W 118°12'4 8.5
2019-Aug-17 23:30N 33°45' W 118°11'0 0.5
2019-Aug-17 23:01N 33°45' W 118°11'0 0.0
2019-Aug-17 22:30N 33°45' W 118°11'0 0.0
2019-Aug-17 22:01N 33°45' W 118°11'0 0.0
2019-Aug-17 21:30N 33°45' W 118°11'0 0.0
2019-Aug-17 21:00N 33°45' W 118°11'0 0.0
2019-Aug-17 20:31N 33°45' W 118°11'0 0.0
2019-Aug-17 20:00N 33°45' W 118°11'0 0.0
2019-Aug-17 19:30N 33°45' W 118°11'0 0.0
2019-Aug-17 19:00N 33°45' W 118°11'0 0.0
2019-Aug-17 18:31N 33°45' W 118°11'0 0.0
2019-Aug-17 17:31N 33°45' W 118°11'0 0.0
2019-Aug-17 17:01N 33°45' W 118°11'0 0.0
2019-Aug-17 16:30N 33°45' W 118°11'0 0.0
2019-Aug-17 16:01N 33°45' W 118°11'0 0.0
2019-Aug-17 15:30N 33°45' W 118°11'0 0.0
2019-Aug-17 15:00N 33°45' W 118°11'0 0.0
2019-Aug-17 14:31N 33°45' W 118°11'0 0.0
2019-Aug-17 14:01N 33°45' W 118°11'0 0.3
2019-Aug-17 13:30N 33°45' W 118°11'4 7.4
2019-Aug-17 13:00N 33°41' W 118°11'611.0
2019-Aug-17 12:30N 33°36' W 118°10'611.5
2019-Aug-17 12:00N 33°30' W 118°07'611.7
2019-Aug-17 11:30N 33°25' W 118°05'612.0
2019-Aug-17 11:00N 33°19' W 118°03'611.9
2019-Aug-17 10:30N 33°14' W 118°00'611.9
2019-Aug-17 10:00N 33°08' W 117°58'5323.9
2019-Aug-17 10:00N 33°12' W 117°54'1020.3 070 / 51012.010.8 18.012.718.0
2019-Aug-17 09:30N 33°02' W 117°55'510.6
2019-Aug-17 09:00N 32°57' W 117°53'816.5
2019-Aug-17 08:31N 32°49' W 117°50'918.2
2019-Aug-17 08:01N 32°41' W 117°47'918.1
2019-Aug-17 07:31N 32°32' W 117°44'917.7
2019-Aug-17 07:01N 32°24' W 117°41'917.6
2019-Aug-17 06:31N 32°16' W 117°36'918.1
2019-Aug-17 06:01N 32°07' W 117°32'917.9
2019-Aug-17 05:31N 31°59' W 117°29'1019.0
2019-Aug-17 05:01N 31°50' W 117°25'1020.1
2019-Aug-17 04:31N 31°40' W 117°21'1019.8
2019-Aug-17 04:01N 31°31' W 117°17'1019.9
2019-Aug-17 03:30N 31°22' W 117°13'1019.7
2019-Aug-17 03:01N 31°12' W 117°10'1019.7
2019-Aug-17 02:31N 31°03' W 117°07'1019.6
2019-Aug-17 02:00N 30°54' W 117°03'1019.7
2019-Aug-17 01:30N 30°44' W 116°59'1020.1
2019-Aug-17 01:00N 30°35' W 116°54'1020.4
2019-Aug-17 00:30N 30°26' W 116°50'1020.6
2019-Aug-17 00:00N 30°16' W 116°46'1020.7
2019-Aug-16 23:30N 30°06' W 116°42'1020.7
2019-Aug-16 23:00N 29°56' W 116°38'2920.5
2019-Aug-16 21:34N 29°29' W 116°27'1620.0
2019-Aug-16 20:48N 29°14' W 116°21'619.7
2019-Aug-16 20:29N 29°08' W 116°19'1319.6
2019-Aug-16 19:49N 28°56' W 116°14'719.7
2019-Aug-16 19:28N 28°50' W 116°11'919.8
2019-Aug-16 19:00N 28°41' W 116°08'2120.2
2019-Aug-16 19:00N 28°42' W 116°06'1122.0 300 / 141014.010.8 19.013.816.0
2019-Aug-16 18:30N 28°31' W 116°04'1020.0
2019-Aug-16 18:00N 28°22' W 116°00'1019.6
2019-Aug-16 17:31N 28°14' W 115°54'1020.1
2019-Aug-16 17:00N 28°06' W 115°47'16918.8
2019-Aug-16 08:00N 25°54' W 113°48'4522.5 300 / 151012.010.8 20.018.419.0
2019-Aug-16 06:00N 25°18' W 113°18'22320.2 270 / 101012.010.8 22.018.925.0
2019-Aug-15 19:00N 22°54' W 110°12'6321.0 290 / 151012.010.8 26.021.522.0
2019-Aug-15 16:00N 22°24' W 109°12'5819.4 250 / 151011.010.8 27.022.628.0
2019-Aug-15 13:00N 21°54' W 108°18'13519.2 250 / 121012.010.8 28.020.527.0
2019-Aug-15 06:00N 20°48' W 106°12'   290 / 101011.010.8 29.024.825.0

Dump ship's entire track history